Green Township, Ohio
Current Conditions -  °F | °C
As of 7:38 AM on Wednesday 26 Nov 2014 (Local Time) from KI69 Reporting Station
Clear Clear  
Wind Chill: 23°   Ceiling: Unl
Heat Index: 28°   Visibility: 10mi
Dew Point: 28°   Wind: 5mph
Humidity: 100%   Direction: 30°NNE
Pressure: 30.12"   Gusts: NA
Location:  39.1663°N, 84.6602°W
Report Text: KI69 261238Z AUTO 03004KT 10SM CLR M02/M02 A3012 RMK AO1
Loading
Personal Weather Stations






























Interactive Weather Map New forecast layout! Learn more

10-Day Weather Forecast

Advertisements
Track Severe Weather on mobile